sensor_id;sensor_type;location;lat;lon;timestamp;temperature;humidity
27647;DHT22;42229;51.230;6.240;2023-08-06T00:00:24;17.20;99.90
27647;DHT22;42229;51.230;6.240;2023-08-06T00:02:51;17.20;99.90
27647;DHT22;42229;51.230;6.240;2023-08-06T00:05:17;17.20;99.90
27647;DHT22;42229;51.230;6.240;2023-08-06T00:07:49;17.10;99.90
27647;DHT22;42229;51.230;6.240;2023-08-06T00:10:16;17.10;99.90
27647;DHT22;42229;51.230;6.240;2023-08-06T00:12:46;17.00;99.90
27647;DHT22;42229;51.230;6.240;2023-08-06T00:15:12;17.00;99.90
27647;DHT22;42229;51.230;6.240;2023-08-06T00:17:38;17.00;99.90
27647;DHT22;42229;51.230;6.240;2023-08-06T00:20:05;16.90;99.90
27647;DHT22;42229;51.230;6.240;2023-08-06T00:22:32;16.90;99.90
27647;DHT22;42229;51.230;6.240;2023-08-06T00:25:02;16.90;99.90
27647;DHT22;42229;51.230;6.240;2023-08-06T00:27:29;16.80;99.90
27647;DHT22;42229;51.230;6.240;2023-08-06T00:29:55;16.80;99.90
27647;DHT22;42229;51.230;6.240;2023-08-06T00:32:22;16.70;99.90
27647;DHT22;42229;51.230;6.240;2023-08-06T00:34:48;16.70;99.90
27647;DHT22;42229;51.230;6.240;2023-08-06T00:37:17;16.70;99.90
27647;DHT22;42229;51.230;6.240;2023-08-06T00:39:43;16.70;99.90
27647;DHT22;42229;51.230;6.240;2023-08-06T00:42:10;16.70;99.90
27647;DHT22;42229;51.230;6.240;2023-08-06T00:44:38;16.60;99.90
27647;DHT22;42229;51.230;6.240;2023-08-06T00:47:05;16.60;99.90
27647;DHT22;42229;51.230;6.240;2023-08-06T00:49:32;16.60;99.90
27647;DHT22;42229;51.230;6.240;2023-08-06T00:51:58;16.60;99.90
27647;DHT22;42229;51.230;6.240;2023-08-06T00:54:25;16.60;99.90
27647;DHT22;42229;51.230;6.240;2023-08-06T00:56:53;16.60;99.90
27647;DHT22;42229;51.230;6.240;2023-08-06T00:59:19;16.60;99.90
27647;DHT22;42229;51.230;6.240;2023-08-06T01:01:45;16.50;99.90
27647;DHT22;42229;51.230;6.240;2023-08-06T01:04:12;16.50;99.90
27647;DHT22;42229;51.230;6.240;2023-08-06T01:06:48;16.50;99.90
27647;DHT22;42229;51.230;6.240;2023-08-06T01:09:25;16.50;99.90
27647;DHT22;42229;51.230;6.240;2023-08-06T01:14:37;16.50;99.90
27647;DHT22;42229;51.230;6.240;2023-08-06T01:17:26;16.50;99.90
27647;DHT22;42229;51.230;6.240;2023-08-06T01:19:53;16.50;99.90
27647;DHT22;42229;51.230;6.240;2023-08-06T01:22:20;16.50;99.90
27647;DHT22;42229;51.230;6.240;2023-08-06T01:24:47;16.60;99.90
27647;DHT22;42229;51.230;6.240;2023-08-06T01:27:17;16.60;99.90
27647;DHT22;42229;51.230;6.240;2023-08-06T01:32:34;16.70;99.90
27647;DHT22;42229;51.230;6.240;2023-08-06T01:35:01;16.70;99.90
27647;DHT22;42229;51.230;6.240;2023-08-06T01:37:29;16.80;99.90
27647;DHT22;42229;51.230;6.240;2023-08-06T01:39:56;16.80;99.90
27647;DHT22;42229;51.230;6.240;2023-08-06T01:42:22;16.80;99.90
27647;DHT22;42229;51.230;6.240;2023-08-06T01:44:50;16.80;99.90
27647;DHT22;42229;51.230;6.240;2023-08-06T01:47:16;16.90;99.90
27647;DHT22;42229;51.230;6.240;2023-08-06T01:49:43;16.90;99.90
27647;DHT22;42229;51.230;6.240;2023-08-06T01:52:09;17.00;99.90
27647;DHT22;42229;51.230;6.240;2023-08-06T01:54:35;17.00;99.90
27647;DHT22;42229;51.230;6.240;2023-08-06T01:57:01;17.00;99.90
27647;DHT22;42229;51.230;6.240;2023-08-06T01:59:27;17.10;99.90
27647;DHT22;42229;51.230;6.240;2023-08-06T02:01:54;17.10;99.90
27647;DHT22;42229;51.230;6.240;2023-08-06T02:04:20;17.10;99.90
27647;DHT22;42229;51.230;6.240;2023-08-06T02:06:47;17.10;99.90
27647;DHT22;42229;51.230;6.240;2023-08-06T02:09:13;17.20;99.90
27647;DHT22;42229;51.230;6.240;2023-08-06T02:11:39;17.10;99.90
27647;DHT22;42229;51.230;6.240;2023-08-06T02:14:05;17.20;99.90
27647;DHT22;42229;51.230;6.240;2023-08-06T02:16:32;17.20;99.90
27647;DHT22;42229;51.230;6.240;2023-08-06T02:18:58;17.20;99.90
27647;DHT22;42229;51.230;6.240;2023-08-06T02:21:25;17.20;99.90
27647;DHT22;42229;51.230;6.240;2023-08-06T02:23:51;17.30;99.90
27647;DHT22;42229;51.230;6.240;2023-08-06T02:26:18;17.30;99.90
27647;DHT22;42229;51.230;6.240;2023-08-06T02:28:44;17.30;99.90
27647;DHT22;42229;51.230;6.240;2023-08-06T02:31:12;17.30;99.90
27647;DHT22;42229;51.230;6.240;2023-08-06T02:33:38;17.30;99.90
27647;DHT22;42229;51.230;6.240;2023-08-06T02:36:05;17.30;99.90
27647;DHT22;42229;51.230;6.240;2023-08-06T02:38:31;17.30;99.90
27647;DHT22;42229;51.230;6.240;2023-08-06T02:40:58;17.30;99.90
27647;DHT22;42229;51.230;6.240;2023-08-06T02:43:24;17.30;99.90
27647;DHT22;42229;51.230;6.240;2023-08-06T02:45:51;17.30;99.90
27647;DHT22;42229;51.230;6.240;2023-08-06T02:48:17;17.30;99.90
27647;DHT22;42229;51.230;6.240;2023-08-06T02:50:44;17.30;99.90
27647;DHT22;42229;51.230;6.240;2023-08-06T02:53:10;17.30;99.90
27647;DHT22;42229;51.230;6.240;2023-08-06T02:55:38;17.20;99.90
27647;DHT22;42229;51.230;6.240;2023-08-06T02:58:11;17.20;99.90
27647;DHT22;42229;51.230;6.240;2023-08-06T03:00:42;17.20;99.90
27647;DHT22;42229;51.230;6.240;2023-08-06T03:03:09;17.10;99.90
27647;DHT22;42229;51.230;6.240;2023-08-06T03:05:50;17.10;99.90
27647;DHT22;42229;51.230;6.240;2023-08-06T03:08:19;17.00;99.90
27647;DHT22;42229;51.230;6.240;2023-08-06T03:10:50;17.00;99.90
27647;DHT22;42229;51.230;6.240;2023-08-06T03:13:18;16.90;99.90
27647;DHT22;42229;51.230;6.240;2023-08-06T03:15:54;16.90;99.90
27647;DHT22;42229;51.230;6.240;2023-08-06T03:18:22;16.90;99.90
27647;DHT22;42229;51.230;6.240;2023-08-06T03:20:50;16.80;99.90
27647;DHT22;42229;51.230;6.240;2023-08-06T03:23:18;16.80;99.90
27647;DHT22;42229;51.230;6.240;2023-08-06T03:25:45;16.80;99.90
27647;DHT22;42229;51.230;6.240;2023-08-06T03:28:12;16.80;99.90
27647;DHT22;42229;51.230;6.240;2023-08-06T03:30:39;16.80;99.90
27647;DHT22;42229;51.230;6.240;2023-08-06T03:33:07;16.80;99.90
27647;DHT22;42229;51.230;6.240;2023-08-06T03:35:34;16.90;99.90
27647;DHT22;42229;51.230;6.240;2023-08-06T03:38:00;16.90;99.90
27647;DHT22;42229;51.230;6.240;2023-08-06T03:40:27;16.90;99.90
27647;DHT22;42229;51.230;6.240;2023-08-06T03:42:56;16.90;99.90
27647;DHT22;42229;51.230;6.240;2023-08-06T03:45:22;16.90;99.90
27647;DHT22;42229;51.230;6.240;2023-08-06T03:47:49;16.90;99.90
27647;DHT22;42229;51.230;6.240;2023-08-06T03:50:16;16.90;99.90
27647;DHT22;42229;51.230;6.240;2023-08-06T03:52:42;17.00;99.90
27647;DHT22;42229;51.230;6.240;2023-08-06T03:55:10;17.00;99.90
27647;DHT22;42229;51.230;6.240;2023-08-06T03:57:37;17.00;99.90
27647;DHT22;42229;51.230;6.240;2023-08-06T04:00:03;17.00;99.90
27647;DHT22;42229;51.230;6.240;2023-08-06T04:02:40;17.10;99.90
27647;DHT22;42229;51.230;6.240;2023-08-06T04:05:07;17.10;99.90
27647;DHT22;42229;51.230;6.240;2023-08-06T04:07:33;17.10;99.90
27647;DHT22;42229;51.230;6.240;2023-08-06T04:10:00;17.10;99.90
27647;DHT22;42229;51.230;6.240;2023-08-06T04:12:29;17.10;99.90
27647;DHT22;42229;51.230;6.240;2023-08-06T04:14:57;17.10;99.90
27647;DHT22;42229;51.230;6.240;2023-08-06T04:17:23;17.10;99.90
27647;DHT22;42229;51.230;6.240;2023-08-06T04:19:51;17.20;99.90
27647;DHT22;42229;51.230;6.240;2023-08-06T04:22:18;17.20;99.90
27647;DHT22;42229;51.230;6.240;2023-08-06T04:24:45;17.20;99.90
27647;DHT22;42229;51.230;6.240;2023-08-06T04:27:12;17.20;99.90
27647;DHT22;42229;51.230;6.240;2023-08-06T04:29:40;17.30;99.90
27647;DHT22;42229;51.230;6.240;2023-08-06T04:32:08;17.30;99.90
27647;DHT22;42229;51.230;6.240;2023-08-06T04:34:36;17.30;99.90
27647;DHT22;42229;51.230;6.240;2023-08-06T04:37:02;17.30;99.90
27647;DHT22;42229;51.230;6.240;2023-08-06T04:39:30;17.30;99.90
27647;DHT22;42229;51.230;6.240;2023-08-06T04:41:57;17.40;99.90
27647;DHT22;42229;51.230;6.240;2023-08-06T04:44:27;17.40;99.90
27647;DHT22;42229;51.230;6.240;2023-08-06T04:46:53;17.40;99.90
27647;DHT22;42229;51.230;6.240;2023-08-06T04:49:23;17.40;99.90
27647;DHT22;42229;51.230;6.240;2023-08-06T04:51:49;17.50;99.90
27647;DHT22;42229;51.230;6.240;2023-08-06T04:54:15;17.50;99.90
27647;DHT22;42229;51.230;6.240;2023-08-06T04:56:41;17.60;99.90
27647;DHT22;42229;51.230;6.240;2023-08-06T04:59:08;17.60;99.90
27647;DHT22;42229;51.230;6.240;2023-08-06T05:01:34;17.60;99.90
27647;DHT22;42229;51.230;6.240;2023-08-06T05:04:00;17.60;99.90
27647;DHT22;42229;51.230;6.240;2023-08-06T05:06:26;17.60;99.90
27647;DHT22;42229;51.230;6.240;2023-08-06T05:08:53;17.70;99.90
27647;DHT22;42229;51.230;6.240;2023-08-06T05:11:19;17.70;99.90
27647;DHT22;42229;51.230;6.240;2023-08-06T05:13:45;17.70;99.90
27647;DHT22;42229;51.230;6.240;2023-08-06T05:16:11;17.70;99.90
27647;DHT22;42229;51.230;6.240;2023-08-06T05:18:37;17.70;99.90
27647;DHT22;42229;51.230;6.240;2023-08-06T05:21:04;17.80;99.90
27647;DHT22;42229;51.230;6.240;2023-08-06T05:23:30;17.80;99.90
27647;DHT22;42229;51.230;6.240;2023-08-06T05:25:56;17.90;99.90
27647;DHT22;42229;51.230;6.240;2023-08-06T05:28:23;17.90;99.90
27647;DHT22;42229;51.230;6.240;2023-08-06T05:30:49;17.90;99.90
27647;DHT22;42229;51.230;6.240;2023-08-06T05:33:15;18.00;99.90
27647;DHT22;42229;51.230;6.240;2023-08-06T05:35:41;18.00;99.90
27647;DHT22;42229;51.230;6.240;2023-08-06T05:38:08;18.00;99.90
27647;DHT22;42229;51.230;6.240;2023-08-06T05:40:34;18.10;99.90
27647;DHT22;42229;51.230;6.240;2023-08-06T05:43:00;18.10;99.90
27647;DHT22;42229;51.230;6.240;2023-08-06T05:45:26;18.20;99.90
27647;DHT22;42229;51.230;6.240;2023-08-06T05:47:53;18.20;99.90
27647;DHT22;42229;51.230;6.240;2023-08-06T05:50:24;18.30;99.90
27647;DHT22;42229;51.230;6.240;2023-08-06T05:52:50;18.30;99.90
27647;DHT22;42229;51.230;6.240;2023-08-06T05:55:18;18.30;99.90
27647;DHT22;42229;51.230;6.240;2023-08-06T05:57:45;18.40;99.90
27647;DHT22;42229;51.230;6.240;2023-08-06T06:00:11;18.30;99.90
27647;DHT22;42229;51.230;6.240;2023-08-06T06:02:40;18.40;99.90
27647;DHT22;42229;51.230;6.240;2023-08-06T06:05:07;18.40;99.90
27647;DHT22;42229;51.230;6.240;2023-08-06T06:07:33;18.40;99.90
27647;DHT22;42229;51.230;6.240;2023-08-06T06:09:59;18.40;99.90
27647;DHT22;42229;51.230;6.240;2023-08-06T06:12:25;18.40;99.90
27647;DHT22;42229;51.230;6.240;2023-08-06T06:14:52;18.30;99.90
27647;DHT22;42229;51.230;6.240;2023-08-06T06:17:18;18.30;99.90
27647;DHT22;42229;51.230;6.240;2023-08-06T06:19:44;18.30;99.90
27647;DHT22;42229;51.230;6.240;2023-08-06T06:22:10;18.30;99.90
27647;DHT22;42229;51.230;6.240;2023-08-06T06:24:37;18.30;99.90
27647;DHT22;42229;51.230;6.240;2023-08-06T06:27:03;18.30;99.90
27647;DHT22;42229;51.230;6.240;2023-08-06T06:29:29;18.30;99.90
27647;DHT22;42229;51.230;6.240;2023-08-06T06:31:56;18.30;99.90
27647;DHT22;42229;51.230;6.240;2023-08-06T06:34:22;18.30;99.90
27647;DHT22;42229;51.230;6.240;2023-08-06T06:36:48;18.30;99.90
27647;DHT22;42229;51.230;6.240;2023-08-06T06:39:15;18.40;99.90
27647;DHT22;42229;51.230;6.240;2023-08-06T06:41:41;18.30;99.90
27647;DHT22;42229;51.230;6.240;2023-08-06T06:44:17;18.40;99.90
27647;DHT22;42229;51.230;6.240;2023-08-06T06:46:49;18.40;99.90
27647;DHT22;42229;51.230;6.240;2023-08-06T06:49:18;18.40;99.90
27647;DHT22;42229;51.230;6.240;2023-08-06T06:51:44;18.40;99.90
27647;DHT22;42229;51.230;6.240;2023-08-06T06:54:11;18.40;99.90
27647;DHT22;42229;51.230;6.240;2023-08-06T06:56:37;18.40;99.90
27647;DHT22;42229;51.230;6.240;2023-08-06T06:59:03;18.40;99.90
27647;DHT22;42229;51.230;6.240;2023-08-06T07:01:30;18.40;99.90
27647;DHT22;42229;51.230;6.240;2023-08-06T07:03:56;18.30;99.90
27647;DHT22;42229;51.230;6.240;2023-08-06T07:06:23;18.30;99.90
27647;DHT22;42229;51.230;6.240;2023-08-06T07:08:51;18.30;99.90
27647;DHT22;42229;51.230;6.240;2023-08-06T07:11:18;18.20;99.90
27647;DHT22;42229;51.230;6.240;2023-08-06T07:13:56;18.20;99.90
27647;DHT22;42229;51.230;6.240;2023-08-06T07:16:30;18.10;99.90
27647;DHT22;42229;51.230;6.240;2023-08-06T07:19:04;18.10;99.90
27647;DHT22;42229;51.230;6.240;2023-08-06T07:21:32;18.00;99.90
27647;DHT22;42229;51.230;6.240;2023-08-06T07:24:03;18.00;99.90
27647;DHT22;42229;51.230;6.240;2023-08-06T07:26:41;18.00;99.90
27647;DHT22;42229;51.230;6.240;2023-08-06T07:29:12;18.00;99.90
27647;DHT22;42229;51.230;6.240;2023-08-06T07:31:48;18.00;99.90
27647;DHT22;42229;51.230;6.240;2023-08-06T07:34:15;18.00;99.90
27647;DHT22;42229;51.230;6.240;2023-08-06T07:36:43;17.90;99.90
27647;DHT22;42229;51.230;6.240;2023-08-06T07:39:12;18.00;99.90
27647;DHT22;42229;51.230;6.240;2023-08-06T07:41:38;18.00;99.90
27647;DHT22;42229;51.230;6.240;2023-08-06T07:44:05;18.00;99.90
27647;DHT22;42229;51.230;6.240;2023-08-06T07:46:31;18.00;99.90
27647;DHT22;42229;51.230;6.240;2023-08-06T07:48:57;18.00;99.90
27647;DHT22;42229;51.230;6.240;2023-08-06T07:51:24;18.10;99.90
27647;DHT22;42229;51.230;6.240;2023-08-06T07:53:50;18.10;99.90
27647;DHT22;42229;51.230;6.240;2023-08-06T07:56:16;18.20;99.90
27647;DHT22;42229;51.230;6.240;2023-08-06T07:58:43;18.20;99.90
27647;DHT22;42229;51.230;6.240;2023-08-06T08:01:12;18.30;99.90
27647;DHT22;42229;51.230;6.240;2023-08-06T08:03:38;18.20;99.90
27647;DHT22;42229;51.230;6.240;2023-08-06T08:06:05;18.20;99.90
27647;DHT22;42229;51.230;6.240;2023-08-06T08:08:31;18.20;99.90
27647;DHT22;42229;51.230;6.240;2023-08-06T08:10:57;18.10;99.90
27647;DHT22;42229;51.230;6.240;2023-08-06T08:13:26;18.00;99.90
27647;DHT22;42229;51.230;6.240;2023-08-06T08:15:56;17.90;99.90
27647;DHT22;42229;51.230;6.240;2023-08-06T08:18:24;17.80;99.90
27647;DHT22;42229;51.230;6.240;2023-08-06T08:20:50;17.70;99.90
27647;DHT22;42229;51.230;6.240;2023-08-06T08:23:17;17.60;99.90
27647;DHT22;42229;51.230;6.240;2023-08-06T08:25:43;17.50;99.90
27647;DHT22;42229;51.230;6.240;2023-08-06T08:28:09;17.50;99.90
27647;DHT22;42229;51.230;6.240;2023-08-06T08:30:35;17.50;99.90
27647;DHT22;42229;51.230;6.240;2023-08-06T08:33:02;17.50;99.90
27647;DHT22;42229;51.230;6.240;2023-08-06T08:35:28;17.40;99.90
27647;DHT22;42229;51.230;6.240;2023-08-06T08:37:54;17.40;99.90
27647;DHT22;42229;51.230;6.240;2023-08-06T08:40:21;17.40;99.90
27647;DHT22;42229;51.230;6.240;2023-08-06T08:42:49;17.40;99.90
27647;DHT22;42229;51.230;6.240;2023-08-06T08:45:15;17.40;99.90
27647;DHT22;42229;51.230;6.240;2023-08-06T08:47:42;17.40;99.90
27647;DHT22;42229;51.230;6.240;2023-08-06T08:50:09;17.40;99.90
27647;DHT22;42229;51.230;6.240;2023-08-06T08:52:38;17.40;99.90
27647;DHT22;42229;51.230;6.240;2023-08-06T08:55:04;17.40;99.90
27647;DHT22;42229;51.230;6.240;2023-08-06T08:57:31;17.40;99.90
27647;DHT22;42229;51.230;6.240;2023-08-06T08:59:57;17.30;99.90
27647;DHT22;42229;51.230;6.240;2023-08-06T09:02:23;17.30;99.90
27647;DHT22;42229;51.230;6.240;2023-08-06T09:04:51;17.30;99.90
27647;DHT22;42229;51.230;6.240;2023-08-06T09:07:18;17.30;99.90
27647;DHT22;42229;51.230;6.240;2023-08-06T09:09:47;17.30;99.90
27647;DHT22;42229;51.230;6.240;2023-08-06T09:12:15;17.30;99.90
27647;DHT22;42229;51.230;6.240;2023-08-06T09:14:42;17.20;99.90
27647;DHT22;42229;51.230;6.240;2023-08-06T09:17:09;17.10;99.90
27647;DHT22;42229;51.230;6.240;2023-08-06T09:19:42;17.10;99.90
27647;DHT22;42229;51.230;6.240;2023-08-06T09:22:12;17.00;99.90
27647;DHT22;42229;51.230;6.240;2023-08-06T09:24:40;17.00;99.90
27647;DHT22;42229;51.230;6.240;2023-08-06T09:27:11;17.00;99.90
27647;DHT22;42229;51.230;6.240;2023-08-06T09:29:42;16.90;99.90
27647;DHT22;42229;51.230;6.240;2023-08-06T09:32:09;16.90;99.90
27647;DHT22;42229;51.230;6.240;2023-08-06T09:34:35;16.90;99.90
27647;DHT22;42229;51.230;6.240;2023-08-06T09:37:05;16.80;99.90
27647;DHT22;42229;51.230;6.240;2023-08-06T09:39:32;16.70;99.90
27647;DHT22;42229;51.230;6.240;2023-08-06T09:41:59;16.70;99.90
27647;DHT22;42229;51.230;6.240;2023-08-06T09:44:27;16.70;99.90
27647;DHT22;42229;51.230;6.240;2023-08-06T09:46:57;16.70;99.90
27647;DHT22;42229;51.230;6.240;2023-08-06T09:52:02;16.60;99.90
27647;DHT22;42229;51.230;6.240;2023-08-06T09:54:28;16.60;99.90
27647;DHT22;42229;51.230;6.240;2023-08-06T09:57:02;16.50;99.90
27647;DHT22;42229;51.230;6.240;2023-08-06T09:59:34;16.50;99.90
27647;DHT22;42229;51.230;6.240;2023-08-06T10:02:01;16.50;99.90
27647;DHT22;42229;51.230;6.240;2023-08-06T10:04:31;16.50;99.90
27647;DHT22;42229;51.230;6.240;2023-08-06T10:06:58;16.40;99.90
27647;DHT22;42229;51.230;6.240;2023-08-06T10:09:25;16.40;99.90
27647;DHT22;42229;51.230;6.240;2023-08-06T10:11:51;16.40;99.90
27647;DHT22;42229;51.230;6.240;2023-08-06T10:14:32;16.30;99.90
27647;DHT22;42229;51.230;6.240;2023-08-06T10:17:24;16.30;99.90
27647;DHT22;42229;51.230;6.240;2023-08-06T10:20:00;16.20;99.90
27647;DHT22;42229;51.230;6.240;2023-08-06T10:22:29;16.20;99.90
27647;DHT22;42229;51.230;6.240;2023-08-06T10:24:58;16.20;99.90
27647;DHT22;42229;51.230;6.240;2023-08-06T10:27:32;16.20;99.90
27647;DHT22;42229;51.230;6.240;2023-08-06T10:30:30;16.20;99.90
27647;DHT22;42229;51.230;6.240;2023-08-06T10:33:02;16.20;99.90
27647;DHT22;42229;51.230;6.240;2023-08-06T10:38:09;16.20;99.90
27647;DHT22;42229;51.230;6.240;2023-08-06T10:40:37;16.20;99.90
27647;DHT22;42229;51.230;6.240;2023-08-06T10:43:05;16.20;99.90
27647;DHT22;42229;51.230;6.240;2023-08-06T10:45:36;16.20;99.90
27647;DHT22;42229;51.230;6.240;2023-08-06T10:48:03;16.20;99.90
27647;DHT22;42229;51.230;6.240;2023-08-06T10:50:30;16.30;99.90
27647;DHT22;42229;51.230;6.240;2023-08-06T10:52:57;16.30;99.90
27647;DHT22;42229;51.230;6.240;2023-08-06T10:55:27;16.30;99.90
27647;DHT22;42229;51.230;6.240;2023-08-06T10:57:55;16.30;99.90
27647;DHT22;42229;51.230;6.240;2023-08-06T11:00:22;16.40;99.90
27647;DHT22;42229;51.230;6.240;2023-08-06T11:02:50;16.40;99.90
27647;DHT22;42229;51.230;6.240;2023-08-06T11:05:17;16.40;99.90
27647;DHT22;42229;51.230;6.240;2023-08-06T11:07:43;16.50;99.90
27647;DHT22;42229;51.230;6.240;2023-08-06T11:10:10;16.50;99.90
27647;DHT22;42229;51.230;6.240;2023-08-06T11:12:38;16.60;99.90
27647;DHT22;42229;51.230;6.240;2023-08-06T11:15:05;16.60;99.90
27647;DHT22;42229;51.230;6.240;2023-08-06T11:17:32;16.60;99.90
27647;DHT22;42229;51.230;6.240;2023-08-06T11:19:59;16.60;99.90
27647;DHT22;42229;51.230;6.240;2023-08-06T11:22:29;16.70;99.90
27647;DHT22;42229;51.230;6.240;2023-08-06T11:24:55;16.70;99.90
27647;DHT22;42229;51.230;6.240;2023-08-06T11:27:21;16.70;99.90
27647;DHT22;42229;51.230;6.240;2023-08-06T11:29:48;16.60;99.90
27647;DHT22;42229;51.230;6.240;2023-08-06T11:32:14;16.70;99.90
27647;DHT22;42229;51.230;6.240;2023-08-06T11:34:40;16.80;99.90
27647;DHT22;42229;51.230;6.240;2023-08-06T11:37:07;16.80;99.90
27647;DHT22;42229;51.230;6.240;2023-08-06T11:39:37;16.90;99.90
27647;DHT22;42229;51.230;6.240;2023-08-06T11:42:04;16.90;99.90
27647;DHT22;42229;51.230;6.240;2023-08-06T11:44:32;17.00;99.90
27647;DHT22;42229;51.230;6.240;2023-08-06T11:47:00;17.10;99.90
27647;DHT22;42229;51.230;6.240;2023-08-06T11:49:42;17.20;99.90
27647;DHT22;42229;51.230;6.240;2023-08-06T11:52:15;17.20;99.90
27647;DHT22;42229;51.230;6.240;2023-08-06T11:55:07;17.30;99.90
27647;DHT22;42229;51.230;6.240;2023-08-06T11:57:33;17.30;99.90
27647;DHT22;42229;51.230;6.240;2023-08-06T12:00:10;17.40;99.90
27647;DHT22;42229;51.230;6.240;2023-08-06T12:02:44;17.50;99.90
27647;DHT22;42229;51.230;6.240;2023-08-06T12:05:11;17.60;99.90
27647;DHT22;42229;51.230;6.240;2023-08-06T12:07:39;17.70;99.90
27647;DHT22;42229;51.230;6.240;2023-08-06T12:10:07;17.70;99.90
27647;DHT22;42229;51.230;6.240;2023-08-06T12:12:34;17.90;99.90
27647;DHT22;42229;51.230;6.240;2023-08-06T12:15:01;18.00;99.90
27647;DHT22;42229;51.230;6.240;2023-08-06T12:17:27;18.10;99.90
27647;DHT22;42229;51.230;6.240;2023-08-06T12:19:53;18.20;99.90
27647;DHT22;42229;51.230;6.240;2023-08-06T12:22:20;18.30;99.90
27647;DHT22;42229;51.230;6.240;2023-08-06T12:24:46;18.40;99.90
27647;DHT22;42229;51.230;6.240;2023-08-06T12:27:13;18.40;99.90
27647;DHT22;42229;51.230;6.240;2023-08-06T12:29:43;18.40;99.90
27647;DHT22;42229;51.230;6.240;2023-08-06T12:32:10;18.40;99.90
27647;DHT22;42229;51.230;6.240;2023-08-06T12:34:40;18.40;99.90
27647;DHT22;42229;51.230;6.240;2023-08-06T12:37:08;18.30;99.90
27647;DHT22;42229;51.230;6.240;2023-08-06T12:39:37;18.40;99.90
27647;DHT22;42229;51.230;6.240;2023-08-06T12:42:04;18.40;99.90
27647;DHT22;42229;51.230;6.240;2023-08-06T12:44:31;18.40;99.90
27647;DHT22;42229;51.230;6.240;2023-08-06T12:46:58;18.40;99.90
27647;DHT22;42229;51.230;6.240;2023-08-06T12:49:24;18.40;99.90
27647;DHT22;42229;51.230;6.240;2023-08-06T12:51:52;18.40;99.90
27647;DHT22;42229;51.230;6.240;2023-08-06T12:54:19;18.30;99.90
27647;DHT22;42229;51.230;6.240;2023-08-06T12:56:46;18.30;99.90
27647;DHT22;42229;51.230;6.240;2023-08-06T12:59:13;18.30;99.90
27647;DHT22;42229;51.230;6.240;2023-08-06T13:01:41;18.30;99.90
27647;DHT22;42229;51.230;6.240;2023-08-06T13:04:07;18.30;99.90
27647;DHT22;42229;51.230;6.240;2023-08-06T13:06:34;18.30;99.90
27647;DHT22;42229;51.230;6.240;2023-08-06T13:09:03;18.20;99.90
27647;DHT22;42229;51.230;6.240;2023-08-06T13:11:30;18.20;99.90
27647;DHT22;42229;51.230;6.240;2023-08-06T13:14:04;18.30;99.90
27647;DHT22;42229;51.230;6.240;2023-08-06T13:16:35;18.30;99.90
27647;DHT22;42229;51.230;6.240;2023-08-06T13:19:02;18.40;99.90
27647;DHT22;42229;51.230;6.240;2023-08-06T13:24:07;18.50;99.90
27647;DHT22;42229;51.230;6.240;2023-08-06T13:26:34;18.60;99.90
27647;DHT22;42229;51.230;6.240;2023-08-06T13:29:01;18.70;99.90
27647;DHT22;42229;51.230;6.240;2023-08-06T13:31:28;18.80;99.90
27647;DHT22;42229;51.230;6.240;2023-08-06T13:33:54;19.00;99.90
27647;DHT22;42229;51.230;6.240;2023-08-06T13:36:21;19.10;99.90
27647;DHT22;42229;51.230;6.240;2023-08-06T13:38:48;19.20;99.90
27647;DHT22;42229;51.230;6.240;2023-08-06T13:41:15;19.20;99.90
27647;DHT22;42229;51.230;6.240;2023-08-06T13:43:42;19.20;99.90
27647;DHT22;42229;51.230;6.240;2023-08-06T13:46:08;19.20;99.90
27647;DHT22;42229;51.230;6.240;2023-08-06T13:48:35;19.10;99.90
27647;DHT22;42229;51.230;6.240;2023-08-06T13:51:01;19.00;99.90
27647;DHT22;42229;51.230;6.240;2023-08-06T13:53:27;18.90;99.90
27647;DHT22;42229;51.230;6.240;2023-08-06T13:55:56;18.90;99.90
27647;DHT22;42229;51.230;6.240;2023-08-06T13:58:25;18.90;99.90
27647;DHT22;42229;51.230;6.240;2023-08-06T14:00:52;18.90;99.90
27647;DHT22;42229;51.230;6.240;2023-08-06T14:03:20;18.90;99.90
27647;DHT22;42229;51.230;6.240;2023-08-06T14:05:46;18.90;99.90
27647;DHT22;42229;51.230;6.240;2023-08-06T14:08:12;18.90;99.90
27647;DHT22;42229;51.230;6.240;2023-08-06T14:10:39;18.90;99.90
27647;DHT22;42229;51.230;6.240;2023-08-06T14:13:05;18.90;99.90
27647;DHT22;42229;51.230;6.240;2023-08-06T14:15:32;18.80;99.90
27647;DHT22;42229;51.230;6.240;2023-08-06T14:17:59;18.80;99.90
27647;DHT22;42229;51.230;6.240;2023-08-06T14:20:25;18.80;99.90
27647;DHT22;42229;51.230;6.240;2023-08-06T14:22:51;18.70;99.90
27647;DHT22;42229;51.230;6.240;2023-08-06T14:25:17;18.60;99.90
27647;DHT22;42229;51.230;6.240;2023-08-06T14:27:44;18.50;99.90
27647;DHT22;42229;51.230;6.240;2023-08-06T14:30:10;18.50;99.90
27647;DHT22;42229;51.230;6.240;2023-08-06T14:32:36;18.40;99.90
27647;DHT22;42229;51.230;6.240;2023-08-06T14:35:03;18.40;99.90
27647;DHT22;42229;51.230;6.240;2023-08-06T14:37:29;18.20;99.90
27647;DHT22;42229;51.230;6.240;2023-08-06T14:39:55;18.10;99.90
27647;DHT22;42229;51.230;6.240;2023-08-06T14:42:22;18.00;99.90
27647;DHT22;42229;51.230;6.240;2023-08-06T14:44:48;17.90;99.90
27647;DHT22;42229;51.230;6.240;2023-08-06T14:47:14;17.80;99.90
27647;DHT22;42229;51.230;6.240;2023-08-06T14:49:40;17.70;99.90
27647;DHT22;42229;51.230;6.240;2023-08-06T14:52:07;17.60;99.90
27647;DHT22;42229;51.230;6.240;2023-08-06T14:54:33;17.60;99.90
27647;DHT22;42229;51.230;6.240;2023-08-06T14:56:59;17.50;99.90
27647;DHT22;42229;51.230;6.240;2023-08-06T14:59:25;17.40;99.90
27647;DHT22;42229;51.230;6.240;2023-08-06T15:01:52;17.40;99.90
27647;DHT22;42229;51.230;6.240;2023-08-06T15:04:18;17.40;99.90
27647;DHT22;42229;51.230;6.240;2023-08-06T15:06:44;17.30;99.90
27647;DHT22;42229;51.230;6.240;2023-08-06T15:09:11;17.30;99.90
27647;DHT22;42229;51.230;6.240;2023-08-06T15:11:37;17.20;99.90
27647;DHT22;42229;51.230;6.240;2023-08-06T15:14:04;17.20;99.90
27647;DHT22;42229;51.230;6.240;2023-08-06T15:16:33;17.10;99.90
27647;DHT22;42229;51.230;6.240;2023-08-06T15:19:00;17.10;99.90
27647;DHT22;42229;51.230;6.240;2023-08-06T15:21:27;17.00;99.90
27647;DHT22;42229;51.230;6.240;2023-08-06T15:23:53;16.80;99.90
27647;DHT22;42229;51.230;6.240;2023-08-06T15:26:20;16.70;99.90
27647;DHT22;42229;51.230;6.240;2023-08-06T15:28:46;16.60;99.90
27647;DHT22;42229;51.230;6.240;2023-08-06T15:31:13;16.60;99.90
27647;DHT22;42229;51.230;6.240;2023-08-06T15:33:39;16.60;99.90
27647;DHT22;42229;51.230;6.240;2023-08-06T15:36:05;16.60;99.90
27647;DHT22;42229;51.230;6.240;2023-08-06T15:38:31;16.60;99.90
27647;DHT22;42229;51.230;6.240;2023-08-06T15:40:58;16.60;99.90
27647;DHT22;42229;51.230;6.240;2023-08-06T15:43:24;16.60;99.90
27647;DHT22;42229;51.230;6.240;2023-08-06T15:45:50;16.60;99.90